createdAt,value
2023-06-23T00:01:46.165Z,101994.97
2023-06-23T00:04:14.912Z,102001.63
2023-06-23T00:06:44.901Z,102001.97
2023-06-23T00:09:15.761Z,102005.66
2023-06-23T00:11:44.923Z,102012.66
2023-06-23T00:14:14.045Z,102026.34
2023-06-23T00:16:42.932Z,102021.66
2023-06-23T00:19:14.492Z,102014.16
2023-06-23T00:21:48.388Z,102007.22
2023-06-23T00:24:17.151Z,102009.91
2023-06-23T00:26:46.241Z,102021.06
2023-06-23T00:29:14.961Z,102030.78
2023-06-23T00:31:45.971Z,102039.59
2023-06-23T00:34:15.069Z,102044.75
2023-06-23T00:36:45.531Z,102035.38
2023-06-23T00:39:14.628Z,102026.97
2023-06-23T00:41:43.397Z,102040.94
2023-06-23T00:44:13.394Z,102054.31
2023-06-23T00:46:44.993Z,102040.25
2023-06-23T00:49:15.904Z,102050.56
2023-06-23T00:51:47.941Z,102044.72
2023-06-23T00:54:20.039Z,102036.09
2023-06-23T00:56:51.154Z,102046.53
2023-06-23T00:59:19.854Z,102039.91
2023-06-23T01:01:48.603Z,102048.75
2023-06-23T01:04:18.296Z,102054.19
2023-06-23T01:07:04.589Z,102037.72
2023-06-23T01:09:40.632Z,102046.44
2023-06-23T01:12:17.605Z,102049.09
2023-06-23T01:14:54.893Z,102045.19
2023-06-23T01:17:30.978Z,102044.41
2023-06-23T01:20:17.120Z,102056.78
2023-06-23T01:23:22.195Z,102056.41
2023-06-23T01:26:04.786Z,102062.63
2023-06-23T01:28:50.149Z,102066.22
2023-06-23T01:31:24.632Z,102079.25
2023-06-23T01:33:59.357Z,102081.81
2023-06-23T01:36:38.444Z,102082.72
2023-06-23T01:39:13.687Z,102083.84
2023-06-23T01:41:49.627Z,102089.38
2023-06-23T01:44:22.951Z,102097.34
2023-06-23T01:46:56.455Z,102105.59
2023-06-23T01:49:31.371Z,102116.22
2023-06-23T01:52:05.885Z,102102.06
2023-06-23T01:54:36.327Z,102117.13
2023-06-23T01:57:08.039Z,102124.97
2023-06-23T01:59:40.799Z,102117.31
2023-06-23T02:02:13.440Z,102117.44
2023-06-23T02:04:44.223Z,102127.38
2023-06-23T02:07:18.814Z,102117.44
2023-06-23T02:09:48.935Z,102113.44
2023-06-23T02:12:22.016Z,102111.63
2023-06-23T02:14:58.143Z,102112.66
2023-06-23T02:17:28.514Z,102124.19
2023-06-23T02:19:59.204Z,102130.47
2023-06-23T02:22:31.976Z,102124.69
2023-06-23T02:25:04.294Z,102142.63
2023-06-23T02:27:35.248Z,102143.28
2023-06-23T02:30:10.165Z,102149.19
2023-06-23T02:32:40.841Z,102155.47
2023-06-23T02:35:15.424Z,102150.34
2023-06-23T02:37:51.824Z,102154.81
2023-06-23T02:40:23.649Z,102142.00
2023-06-23T02:43:02.684Z,102152.63
2023-06-23T02:45:40.581Z,102167.84
2023-06-23T02:48:16.001Z,102180.78
2023-06-23T02:50:46.456Z,102184.03
2023-06-23T02:53:24.492Z,102184.56
2023-06-23T02:56:02.549Z,102179.88
2023-06-23T02:58:33.055Z,102193.47
2023-06-23T03:01:06.181Z,102184.81
2023-06-23T03:03:39.105Z,102198.28
2023-06-23T03:06:08.545Z,102199.34
2023-06-23T03:08:39.724Z,102197.28
2023-06-23T03:11:09.820Z,102207.91
2023-06-23T03:13:40.075Z,102205.34
2023-06-23T03:16:16.723Z,102213.69
2023-06-23T03:19:01.745Z,102210.00
2023-06-23T03:21:31.320Z,102225.19
2023-06-23T03:24:03.271Z,102235.22
2023-06-23T03:26:37.618Z,102242.34
2023-06-23T03:29:09.866Z,102235.28
2023-06-23T03:31:46.638Z,102245.28
2023-06-23T03:34:18.819Z,102242.72
2023-06-23T03:36:50.452Z,102244.44
2023-06-23T03:39:26.131Z,102244.78
2023-06-23T03:41:55.213Z,102249.78
2023-06-23T03:44:31.914Z,102239.97
2023-06-23T03:47:11.019Z,102245.63
2023-06-23T03:49:46.962Z,102248.47
2023-06-23T03:52:19.663Z,102255.72
2023-06-23T03:54:50.918Z,102251.72
2023-06-23T03:57:27.701Z,102247.06
2023-06-23T03:59:58.076Z,102260.84
2023-06-23T04:02:34.173Z,102270.19
2023-06-23T04:05:05.622Z,102276.69
2023-06-23T04:07:37.879Z,102281.66
2023-06-23T04:10:14.470Z,102270.28
2023-06-23T04:12:45.201Z,102275.84
2023-06-23T04:15:15.526Z,102274.06
2023-06-23T04:17:47.276Z,102272.53
2023-06-23T04:20:17.093Z,102280.78
2023-06-23T04:22:48.436Z,102272.56
2023-06-23T04:25:21.614Z,102278.59
2023-06-23T04:27:55.429Z,102275.09
2023-06-23T04:30:26.826Z,102277.25
2023-06-23T04:32:57.340Z,102288.44
2023-06-23T04:35:28.227Z,102290.31
2023-06-23T04:38:15.291Z,102300.03
2023-06-23T04:40:51.617Z,102303.38
2023-06-23T04:43:29.437Z,102298.56
2023-06-23T04:46:24.504Z,102297.56
2023-06-23T04:49:03.563Z,102299.03
2023-06-23T04:51:39.562Z,102307.38
2023-06-23T04:54:14.540Z,102306.94
2023-06-23T04:56:46.855Z,102295.78
2023-06-23T04:59:21.052Z,102302.44
2023-06-23T05:01:51.316Z,102292.16
2023-06-23T05:04:26.100Z,102299.09
2023-06-23T05:06:56.332Z,102294.75
2023-06-23T05:09:26.142Z,102299.03
2023-06-23T05:12:03.213Z,102307.25
2023-06-23T05:14:33.978Z,102298.16
2023-06-23T05:17:05.929Z,102297.47
2023-06-23T05:19:43.017Z,102299.28
2023-06-23T05:22:15.890Z,102308.97
2023-06-23T05:24:51.333Z,102302.44
2023-06-23T05:27:25.607Z,102307.84
2023-06-23T05:30:00.276Z,102307.88
2023-06-23T05:32:34.464Z,102308.28
2023-06-23T05:35:09.245Z,102312.22
2023-06-23T05:37:46.407Z,102314.69
2023-06-23T05:40:17.851Z,102303.34
2023-06-23T05:42:48.372Z,102311.88
2023-06-23T05:45:17.487Z,102310.06
2023-06-23T05:48:02.769Z,102319.88
2023-06-23T05:50:36.921Z,102321.69
2023-06-23T05:53:10.532Z,102331.00
2023-06-23T05:55:46.508Z,102320.13
2023-06-23T05:58:20.127Z,102326.91
2023-06-23T06:00:55.490Z,102330.06
2023-06-23T06:03:31.355Z,102332.47
2023-06-23T06:06:04.698Z,102334.03
2023-06-23T06:08:37.304Z,102332.88
2023-06-23T06:11:07.290Z,102336.25
2023-06-23T06:13:43.133Z,102344.16
2023-06-23T06:16:13.177Z,102354.34
2023-06-23T06:18:42.780Z,102358.06
2023-06-23T06:21:14.271Z,102349.63
2023-06-23T06:23:44.170Z,102358.13
2023-06-23T06:26:14.391Z,102358.31
2023-06-23T06:28:45.375Z,102360.28
2023-06-23T06:31:16.787Z,102353.81
2023-06-23T06:33:46.543Z,102355.81
2023-06-23T06:36:18.613Z,102360.63
2023-06-23T06:38:49.477Z,102362.09
2023-06-23T06:41:18.500Z,102366.47
2023-06-23T06:43:47.040Z,102364.06
2023-06-23T06:46:16.538Z,102365.41
2023-06-23T06:48:47.717Z,102365.13
2023-06-23T06:51:19.740Z,102368.38
2023-06-23T06:53:49.868Z,102361.75
2023-06-23T06:56:19.745Z,102372.94
2023-06-23T06:58:49.087Z,102361.16
2023-06-23T07:01:20.584Z,102370.03
2023-06-23T07:03:50.471Z,102375.97
2023-06-23T07:06:20.928Z,102371.19
2023-06-23T07:08:52.906Z,102387.00
2023-06-23T07:11:24.653Z,102387.91
2023-06-23T07:13:53.482Z,102383.63
2023-06-23T07:16:22.094Z,102378.03
2023-06-23T07:18:50.985Z,102376.53
2023-06-23T07:21:27.956Z,102385.03
2023-06-23T07:23:56.712Z,102372.13
2023-06-23T07:26:25.380Z,102375.78
2023-06-23T07:28:54.658Z,102385.78
2023-06-23T07:31:27.412Z,102380.69
2023-06-23T07:33:56.193Z,102377.22
2023-06-23T07:36:26.630Z,102374.94
2023-06-23T07:38:55.544Z,102381.13
2023-06-23T07:41:24.093Z,102391.53
2023-06-23T07:43:52.565Z,102383.53
2023-06-23T07:46:21.495Z,102391.09
2023-06-23T07:48:50.462Z,102399.56
2023-06-23T07:51:22.320Z,102393.06
2023-06-23T07:54:05.759Z,102387.16
2023-06-23T07:56:36.341Z,102389.34
2023-06-23T07:59:04.864Z,102392.63
2023-06-23T08:01:33.141Z,102395.41
2023-06-23T08:04:02.189Z,102390.19
2023-06-23T08:06:32.269Z,102389.63
2023-06-23T08:09:02.032Z,102385.03
2023-06-23T08:11:30.645Z,102391.34
2023-06-23T08:14:01.405Z,102392.09
2023-06-23T08:16:29.928Z,102388.22
2023-06-23T08:18:58.349Z,102392.16
2023-06-23T08:21:27.004Z,102392.31
2023-06-23T08:23:55.663Z,102380.75
2023-06-23T08:26:26.281Z,102382.28
2023-06-23T08:28:55.157Z,102386.28
2023-06-23T08:31:24.193Z,102390.69
2023-06-23T08:33:53.065Z,102398.22
2023-06-23T08:36:21.707Z,102400.41
2023-06-23T08:38:50.590Z,102409.06
2023-06-23T08:41:34.466Z,102409.03
2023-06-23T08:44:06.625Z,102402.16
2023-06-23T08:49:22.510Z,102422.19
2023-06-23T08:51:51.956Z,102422.91
2023-06-23T08:54:21.040Z,102423.69
2023-06-23T08:56:51.288Z,102429.53
2023-06-23T08:59:20.016Z,102432.16
2023-06-23T09:01:49.206Z,102429.97
2023-06-23T09:04:18.508Z,102429.84
2023-06-23T09:06:47.204Z,102440.81
2023-06-23T09:09:16.219Z,102444.56
2023-06-23T09:11:45.286Z,102440.44
2023-06-23T09:14:16.349Z,102445.25
2023-06-23T09:16:45.235Z,102445.59
2023-06-23T09:19:15.984Z,102437.03
2023-06-23T09:21:45.944Z,102452.13
2023-06-23T09:24:14.682Z,102461.03
2023-06-23T09:26:47.599Z,102451.25
2023-06-23T09:29:20.025Z,102459.47
2023-06-23T09:31:50.408Z,102457.19
2023-06-23T09:34:24.599Z,102467.44
2023-06-23T09:36:54.834Z,102465.25
2023-06-23T09:39:23.546Z,102468.69
2023-06-23T09:41:58.961Z,102470.63
2023-06-23T09:44:36.845Z,102469.75
2023-06-23T09:47:07.131Z,102466.06
2023-06-23T09:49:43.836Z,102466.75
2023-06-23T09:52:16.632Z,102467.19
2023-06-23T09:54:45.182Z,102469.94
2023-06-23T09:57:16.909Z,102472.53
2023-06-23T09:59:50.928Z,102480.09
2023-06-23T10:02:25.261Z,102475.84
2023-06-23T10:05:01.458Z,102478.75
2023-06-23T10:07:31.004Z,102479.84
2023-06-23T10:10:12.245Z,102472.56
2023-06-23T10:12:49.207Z,102463.63
2023-06-23T10:15:19.334Z,102474.78
2023-06-23T10:17:48.162Z,102470.66
2023-06-23T10:20:17.394Z,102468.97
2023-06-23T10:22:48.798Z,102467.44
2023-06-23T10:25:21.916Z,102458.47
2023-06-23T10:27:53.606Z,102461.50
2023-06-23T10:30:25.176Z,102456.56
2023-06-23T10:33:01.576Z,102459.06
2023-06-23T10:35:32.478Z,102459.34
2023-06-23T10:38:05.821Z,102451.38
2023-06-23T10:40:41.409Z,102450.19
2023-06-23T10:43:12.803Z,102460.47
2023-06-23T10:45:43.132Z,102465.66
2023-06-23T10:48:12.140Z,102465.34
2023-06-23T10:50:41.419Z,102476.25
2023-06-23T10:53:19.633Z,102479.13
2023-06-23T10:56:08.453Z,102477.03
2023-06-23T10:58:52.643Z,102477.63
2023-06-23T11:01:22.554Z,102476.31
2023-06-23T11:03:54.534Z,102479.25
2023-06-23T11:06:37.910Z,102485.41
2023-06-23T11:09:27.296Z,102482.13
2023-06-23T11:11:55.733Z,102484.84
2023-06-23T11:14:25.656Z,102485.91
2023-06-23T11:16:55.729Z,102483.28
2023-06-23T11:19:29.789Z,102491.31
2023-06-23T11:22:11.236Z,102484.94
2023-06-23T11:24:54.953Z,102489.69
2023-06-23T11:27:23.273Z,102492.19
2023-06-23T11:30:19.282Z,102492.06
2023-06-23T11:33:38.161Z,102486.59
2023-06-23T11:36:09.485Z,102500.47
2023-06-23T11:38:41.476Z,102497.78
2023-06-23T11:41:10.857Z,102496.34
2023-06-23T11:43:40.439Z,102501.50
2023-06-23T11:46:13.138Z,102492.25
2023-06-23T11:48:43.783Z,102497.69
2023-06-23T11:51:17.176Z,102501.44
2023-06-23T11:53:47.064Z,102499.03
2023-06-23T11:56:19.613Z,102499.06
2023-06-23T11:58:53.233Z,102505.13
2023-06-23T12:01:21.999Z,102509.13
2023-06-23T12:03:54.300Z,102508.41
2023-06-23T12:06:25.327Z,102507.19
2023-06-23T12:08:53.992Z,102506.59
2023-06-23T12:11:23.673Z,102510.91
2023-06-23T12:13:54.191Z,102517.06
2023-06-23T12:16:22.565Z,102509.16
2023-06-23T12:18:53.589Z,102506.81
2023-06-23T12:21:23.730Z,102518.00
2023-06-23T12:23:52.738Z,102511.09
2023-06-23T12:26:21.235Z,102508.03
2023-06-23T12:28:50.609Z,102513.28
2023-06-23T12:31:30.148Z,102513.03
2023-06-23T12:34:03.762Z,102513.34
2023-06-23T12:36:32.850Z,102507.81
2023-06-23T12:39:02.325Z,102503.66
2023-06-23T12:41:31.342Z,102505.72
2023-06-23T12:44:01.912Z,102501.44
2023-06-23T12:46:32.276Z,102501.31
2023-06-23T12:49:02.140Z,102506.56
2023-06-23T12:51:35.176Z,102503.56
2023-06-23T12:54:04.294Z,102505.50
2023-06-23T12:56:32.941Z,102501.47
2023-06-23T12:59:01.399Z,102506.72
2023-06-23T13:01:29.778Z,102513.19
2023-06-23T13:03:58.169Z,102510.72
2023-06-23T13:06:28.155Z,102513.66
2023-06-23T13:08:56.791Z,102517.03
2023-06-23T13:11:25.232Z,102522.59
2023-06-23T13:13:55.583Z,102514.97
2023-06-23T13:16:23.968Z,102520.28
2023-06-23T13:18:52.552Z,102521.25
2023-06-23T13:21:20.888Z,102524.41
2023-06-23T13:23:50.613Z,102517.69
2023-06-23T13:26:19.181Z,102502.72
2023-06-23T13:28:47.527Z,102511.88
2023-06-23T13:31:16.215Z,102511.56
2023-06-23T13:33:45.519Z,102511.50
2023-06-23T13:36:14.097Z,102502.03
2023-06-23T13:38:43.762Z,102496.41
2023-06-23T13:41:14.566Z,102499.97
2023-06-23T13:43:42.832Z,102504.69
2023-06-23T13:46:12.599Z,102514.72
2023-06-23T13:48:41.044Z,102505.97
2023-06-23T13:51:09.955Z,102502.13
2023-06-23T13:53:39.691Z,102500.78
2023-06-23T13:56:08.395Z,102499.31
2023-06-23T13:58:38.320Z,102498.47
2023-06-23T14:01:06.754Z,102497.13
2023-06-23T14:03:35.752Z,102495.63
2023-06-23T14:06:05.296Z,102508.31
2023-06-23T14:08:35.070Z,102502.56
2023-06-23T14:11:03.607Z,102510.94
2023-06-23T14:13:31.970Z,102503.38
2023-06-23T14:16:03.894Z,102506.91
2023-06-23T14:18:33.399Z,102508.34
2023-06-23T14:21:01.980Z,102507.47
2023-06-23T14:23:30.511Z,102511.88
2023-06-23T14:25:58.967Z,102510.19
2023-06-23T14:28:30.412Z,102508.34
2023-06-23T14:30:59.434Z,102505.91
2023-06-23T14:33:29.311Z,102512.19
2023-06-23T14:35:58.461Z,102519.66
2023-06-23T14:38:26.813Z,102510.72
2023-06-23T14:40:55.374Z,102509.78
2023-06-23T14:43:24.024Z,102515.63
2023-06-23T14:45:54.065Z,102512.34
2023-06-23T14:48:23.415Z,102509.72
2023-06-23T14:50:53.948Z,102514.09
2023-06-23T14:53:22.792Z,102534.72
2023-06-23T14:55:51.511Z,102522.41
2023-06-23T14:58:20.976Z,102522.88
2023-06-23T15:00:49.358Z,102516.97
2023-06-23T15:03:20.546Z,102520.31
2023-06-23T15:05:52.099Z,102519.34
2023-06-23T15:08:22.446Z,102524.88
2023-06-23T15:10:50.956Z,102519.09
2023-06-23T15:13:19.484Z,102532.19
2023-06-23T15:15:47.832Z,102522.34
2023-06-23T15:18:16.211Z,102518.69
2023-06-23T15:20:44.619Z,102526.53
2023-06-23T15:23:14.813Z,102516.81
2023-06-23T15:25:43.642Z,102525.34
2023-06-23T15:28:29.254Z,102521.75
2023-06-23T15:30:58.490Z,102520.63
2023-06-23T15:33:27.922Z,102529.25
2023-06-23T15:35:57.211Z,102526.13
2023-06-23T15:38:28.054Z,102521.59
2023-06-23T15:40:56.895Z,102536.44
2023-06-23T15:43:25.308Z,102530.84
2023-06-23T15:45:53.898Z,102533.81
2023-06-23T15:48:22.564Z,102523.53
2023-06-23T15:50:52.788Z,102526.88
2023-06-23T15:53:21.577Z,102518.84
2023-06-23T15:55:51.423Z,102518.31
2023-06-23T15:58:20.057Z,102515.66
2023-06-23T16:00:48.488Z,102509.66
2023-06-23T16:03:17.057Z,102515.25
2023-06-23T16:05:45.608Z,102518.66
2023-06-23T16:08:14.231Z,102517.34
2023-06-23T16:10:42.679Z,102515.56
2023-06-23T16:13:12.403Z,102515.50
2023-06-23T16:15:40.833Z,102529.78
2023-06-23T16:18:09.405Z,102525.31
2023-06-23T16:20:38.589Z,102518.25
2023-06-23T16:23:07.143Z,102530.81
2023-06-23T16:25:35.637Z,102530.28
2023-06-23T16:28:05.934Z,102531.75
2023-06-23T16:30:36.235Z,102522.59
2023-06-23T16:33:04.960Z,102518.25
2023-06-23T16:35:33.690Z,102527.75
2023-06-23T16:38:02.504Z,102521.00
2023-06-23T16:40:30.840Z,102523.69
2023-06-23T16:43:01.057Z,102521.84
2023-06-23T16:45:30.141Z,102524.28
2023-06-23T16:48:00.844Z,102522.00
2023-06-23T16:50:31.681Z,102521.94
2023-06-23T16:53:00.030Z,102514.59
2023-06-23T16:55:28.488Z,102513.81
2023-06-23T16:57:57.044Z,102515.28
2023-06-23T17:00:25.757Z,102502.09
2023-06-23T17:02:54.313Z,102510.59
2023-06-23T17:05:24.216Z,102507.94
2023-06-23T17:07:52.605Z,102506.91
2023-06-23T17:10:21.151Z,102514.78
2023-06-23T17:12:50.003Z,102520.56
2023-06-23T17:15:18.557Z,102524.00
2023-06-23T17:17:47.288Z,102521.19
2023-06-23T17:20:16.351Z,102518.03
2023-06-23T17:22:46.415Z,102522.41
2023-06-23T17:25:15.881Z,102523.06
2023-06-23T17:27:44.450Z,102526.81
2023-06-23T17:30:13.363Z,102527.78
2023-06-23T17:32:42.122Z,102521.16
2023-06-23T17:35:11.020Z,102521.22
2023-06-23T17:37:39.702Z,102523.50
2023-06-23T17:40:11.069Z,102522.66
2023-06-23T17:42:39.668Z,102515.75
2023-06-23T17:45:10.273Z,102516.41
2023-06-23T17:47:38.914Z,102524.00
2023-06-23T17:50:09.711Z,102512.94
2023-06-23T17:52:38.568Z,102509.16
2023-06-23T17:55:10.173Z,102511.06
2023-06-23T17:57:38.705Z,102511.75
2023-06-23T18:00:09.033Z,102507.78
2023-06-23T18:02:37.528Z,102515.34
2023-06-23T18:05:06.850Z,102508.81
2023-06-23T18:07:35.271Z,102519.50
2023-06-23T18:10:04.140Z,102519.84
2023-06-23T18:12:34.083Z,102515.69
2023-06-23T18:15:03.853Z,102523.25
2023-06-23T18:17:33.803Z,102530.78
2023-06-23T18:20:02.317Z,102531.34
2023-06-23T18:22:30.589Z,102529.50
2023-06-23T18:24:58.954Z,102532.13
2023-06-23T18:27:27.380Z,102519.94
2023-06-23T18:29:58.316Z,102522.84
2023-06-23T18:32:44.314Z,102525.50
2023-06-23T18:35:15.047Z,102524.50
2023-06-23T18:37:44.796Z,102524.81
2023-06-23T18:40:14.521Z,102522.63
2023-06-23T18:42:44.771Z,102519.28
2023-06-23T18:45:15.128Z,102524.44
2023-06-23T18:47:43.810Z,102519.66
2023-06-23T18:50:14.221Z,102523.91
2023-06-23T18:52:42.882Z,102515.13
2023-06-23T18:55:11.644Z,102520.94
2023-06-23T18:57:40.023Z,102516.97
2023-06-23T19:00:12.446Z,102520.25
2023-06-23T19:02:42.323Z,102523.56
2023-06-23T19:05:11.430Z,102514.56
2023-06-23T19:07:40.025Z,102513.84
2023-06-23T19:10:09.298Z,102524.06
2023-06-23T19:12:37.758Z,102529.09
2023-06-23T19:15:07.634Z,102528.75
2023-06-23T19:17:36.352Z,102521.78
2023-06-23T19:20:10.910Z,102525.44
2023-06-23T19:22:39.627Z,102531.16
2023-06-23T19:25:09.200Z,102534.09
2023-06-23T19:27:37.543Z,102526.31
2023-06-23T19:30:06.825Z,102532.06
2023-06-23T19:32:35.312Z,102528.31
2023-06-23T19:35:05.311Z,102528.63
2023-06-23T19:37:33.936Z,102523.84
2023-06-23T19:40:03.558Z,102529.91
2023-06-23T19:42:31.805Z,102528.59
2023-06-23T19:45:00.379Z,102528.28
2023-06-23T19:47:28.924Z,102535.19
2023-06-23T19:49:57.363Z,102539.50
2023-06-23T19:52:27.522Z,102544.09
2023-06-23T19:54:56.696Z,102539.47
2023-06-23T19:57:25.043Z,102535.06
2023-06-23T19:59:54.953Z,102529.88
2023-06-23T20:02:23.787Z,102539.69
2023-06-23T20:04:52.212Z,102538.94
2023-06-23T20:07:20.726Z,102542.16
2023-06-23T20:09:50.862Z,102541.81
2023-06-23T20:12:19.256Z,102529.00
2023-06-23T20:14:48.262Z,102537.34
2023-06-23T20:17:18.953Z,102532.84
2023-06-23T20:19:51.906Z,102536.59
2023-06-23T20:22:21.185Z,102535.56
2023-06-23T20:24:53.379Z,102539.91
2023-06-23T20:27:22.372Z,102550.53
2023-06-23T20:29:51.348Z,102531.09
2023-06-23T20:32:22.533Z,102534.25
2023-06-23T20:34:55.214Z,102531.41
2023-06-23T20:37:24.225Z,102531.91
2023-06-23T20:39:55.589Z,102541.22
2023-06-23T20:42:25.077Z,102536.31
2023-06-23T20:44:55.197Z,102535.59
2023-06-23T20:47:24.882Z,102537.38
2023-06-23T20:49:59.498Z,102529.69
2023-06-23T20:52:32.291Z,102535.72
2023-06-23T20:55:03.539Z,102539.59
2023-06-23T20:57:35.056Z,102536.31
2023-06-23T21:00:06.953Z,102536.97
2023-06-23T21:02:36.984Z,102541.72
2023-06-23T21:05:06.867Z,102528.88
2023-06-23T21:07:36.614Z,102539.41
2023-06-23T21:13:01.690Z,102529.91
2023-06-23T21:15:30.748Z,102526.41
2023-06-23T21:18:00.639Z,102520.25
2023-06-23T21:20:29.560Z,102525.19
2023-06-23T21:22:58.384Z,102521.97
2023-06-23T21:25:28.516Z,102530.66
2023-06-23T21:27:58.669Z,102528.91
2023-06-23T21:30:28.346Z,102518.88
2023-06-23T21:32:58.577Z,102527.84
2023-06-23T21:35:28.771Z,102524.72
2023-06-23T21:37:58.496Z,102519.69
2023-06-23T21:40:28.636Z,102520.28
2023-06-23T21:42:57.503Z,102526.97
2023-06-23T21:45:26.916Z,102525.53
2023-06-23T21:47:55.824Z,102521.28
2023-06-23T21:50:24.441Z,102514.72
2023-06-23T21:52:53.376Z,102528.63
2023-06-23T21:55:23.470Z,102535.72
2023-06-23T21:57:53.734Z,102538.53
2023-06-23T22:00:27.674Z,102537.16
2023-06-23T22:02:57.122Z,102528.50
2023-06-23T22:05:28.267Z,102529.75
2023-06-23T22:07:57.804Z,102534.69
2023-06-23T22:10:27.218Z,102540.63
2023-06-23T22:12:59.361Z,102538.66
2023-06-23T22:15:28.954Z,102528.44
2023-06-23T22:17:59.120Z,102524.09
2023-06-23T22:20:29.670Z,102536.91
2023-06-23T22:22:59.242Z,102533.91
2023-06-23T22:25:28.905Z,102534.50
2023-06-23T22:28:00.362Z,102542.16
2023-06-23T22:30:29.886Z,102542.28
2023-06-23T22:32:59.725Z,102546.25
2023-06-23T22:35:28.487Z,102536.31
2023-06-23T22:37:58.096Z,102540.50
2023-06-23T22:40:27.285Z,102533.31
2023-06-23T22:42:55.964Z,102545.84
2023-06-23T22:45:26.577Z,102547.44
2023-06-23T22:47:55.305Z,102546.09
2023-06-23T22:50:24.374Z,102547.47
2023-06-23T22:52:53.832Z,102548.84
2023-06-23T22:55:25.239Z,102543.44
2023-06-23T22:57:53.809Z,102547.66
2023-06-23T23:00:23.010Z,102535.69
2023-06-23T23:02:53.682Z,102538.03
2023-06-23T23:05:23.140Z,102541.66
2023-06-23T23:07:51.993Z,102540.00
2023-06-23T23:10:21.549Z,102546.94
2023-06-23T23:12:50.262Z,102538.16
2023-06-23T23:15:19.138Z,102545.63
2023-06-23T23:17:50.231Z,102543.88
2023-06-23T23:20:20.585Z,102532.03
2023-06-23T23:22:50.726Z,102540.34
2023-06-23T23:25:22.244Z,102533.19
2023-06-23T23:27:52.758Z,102531.00
2023-06-23T23:30:21.597Z,102535.06
2023-06-23T23:32:50.480Z,102527.84
2023-06-23T23:35:21.710Z,102529.81
2023-06-23T23:37:50.336Z,102533.06
2023-06-23T23:40:19.228Z,102529.44
2023-06-23T23:42:47.743Z,102532.81
2023-06-23T23:45:16.765Z,102539.47
2023-06-23T23:47:46.833Z,102533.50
2023-06-23T23:50:16.956Z,102529.69
2023-06-23T23:52:47.308Z,102535.41
2023-06-23T23:55:16.247Z,102536.50
2023-06-23T23:57:45.603Z,102531.06
